sensor_id;sensor_type;location;lat;lon;timestamp;temperature;humidity
61151;DHT22;47029;50.994;2.876;2022-09-09T00:04:31;15.80;99.90
61151;DHT22;47029;50.994;2.876;2022-09-09T00:07:20;15.80;99.90
61151;DHT22;47029;50.994;2.876;2022-09-09T00:12:36;15.90;99.90
61151;DHT22;47029;50.994;2.876;2022-09-09T00:15:12;15.90;99.90
61151;DHT22;47029;50.994;2.876;2022-09-09T00:17:48;15.90;99.90
61151;DHT22;47029;50.994;2.876;2022-09-09T00:20:28;15.90;99.90
61151;DHT22;47029;50.994;2.876;2022-09-09T00:25:43;16.10;99.90
61151;DHT22;47029;50.994;2.876;2022-09-09T00:28:19;16.00;99.90
61151;DHT22;47029;50.994;2.876;2022-09-09T00:30:46;15.90;99.90
61151;DHT22;47029;50.994;2.876;2022-09-09T00:33:18;15.90;99.90
61151;DHT22;47029;50.994;2.876;2022-09-09T00:35:57;16.00;99.90
61151;DHT22;47029;50.994;2.876;2022-09-09T00:41:13;15.90;99.90
61151;DHT22;47029;50.994;2.876;2022-09-09T00:43:41;16.00;99.90
61151;DHT22;47029;50.994;2.876;2022-09-09T00:49:32;15.80;99.90
61151;DHT22;47029;50.994;2.876;2022-09-09T00:52:26;15.80;99.90
61151;DHT22;47029;50.994;2.876;2022-09-09T00:57:41;15.80;99.90
61151;DHT22;47029;50.994;2.876;2022-09-09T01:00:20;15.70;99.90
61151;DHT22;47029;50.994;2.876;2022-09-09T01:11:00;15.60;99.90
61151;DHT22;47029;50.994;2.876;2022-09-09T01:13:33;15.70;99.90
61151;DHT22;47029;50.994;2.876;2022-09-09T01:16:03;15.50;99.90
61151;DHT22;47029;50.994;2.876;2022-09-09T01:18:33;15.50;99.90
61151;DHT22;47029;50.994;2.876;2022-09-09T01:22:20;15.60;99.90
61151;DHT22;47029;50.994;2.876;2022-09-09T01:24:45;15.60;99.90
61151;DHT22;47029;50.994;2.876;2022-09-09T01:27:17;15.70;99.90
61151;DHT22;47029;50.994;2.876;2022-09-09T01:29:43;15.70;99.90
61151;DHT22;47029;50.994;2.876;2022-09-09T01:32:39;15.80;99.90
61151;DHT22;47029;50.994;2.876;2022-09-09T01:35:35;15.80;99.90
61151;DHT22;47029;50.994;2.876;2022-09-09T01:37:56;15.80;99.90
61151;DHT22;47029;50.994;2.876;2022-09-09T01:40:23;15.80;99.90
61151;DHT22;47029;50.994;2.876;2022-09-09T01:42:49;15.80;99.90
61151;DHT22;47029;50.994;2.876;2022-09-09T01:45:15;15.80;99.90
61151;DHT22;47029;50.994;2.876;2022-09-09T01:47:41;15.90;99.90
61151;DHT22;47029;50.994;2.876;2022-09-09T01:50:08;15.70;99.90
61151;DHT22;47029;50.994;2.876;2022-09-09T01:52:37;15.80;99.90
61151;DHT22;47029;50.994;2.876;2022-09-09T01:55:04;15.80;99.90
61151;DHT22;47029;50.994;2.876;2022-09-09T01:58:40;15.70;99.90
61151;DHT22;47029;50.994;2.876;2022-09-09T02:01:02;15.70;99.90
61151;DHT22;47029;50.994;2.876;2022-09-09T02:03:32;15.70;99.90
61151;DHT22;47029;50.994;2.876;2022-09-09T02:06:08;15.70;99.90
61151;DHT22;47029;50.994;2.876;2022-09-09T02:08:43;15.60;99.90
61151;DHT22;47029;50.994;2.876;2022-09-09T02:11:18;15.60;99.90
61151;DHT22;47029;50.994;2.876;2022-09-09T02:13:46;15.80;99.90
61151;DHT22;47029;50.994;2.876;2022-09-09T02:18:49;15.80;99.90
61151;DHT22;47029;50.994;2.876;2022-09-09T02:21:17;16.00;99.90
61151;DHT22;47029;50.994;2.876;2022-09-09T02:23:44;15.90;99.90
61151;DHT22;47029;50.994;2.876;2022-09-09T02:26:13;16.00;99.90
61151;DHT22;47029;50.994;2.876;2022-09-09T02:28:46;15.90;99.90
61151;DHT22;47029;50.994;2.876;2022-09-09T02:31:16;15.90;99.90
61151;DHT22;47029;50.994;2.876;2022-09-09T02:33:45;15.80;99.90
61151;DHT22;47029;50.994;2.876;2022-09-09T02:36:15;15.80;99.90
61151;DHT22;47029;50.994;2.876;2022-09-09T02:38:46;15.90;99.90
61151;DHT22;47029;50.994;2.876;2022-09-09T02:41:19;16.00;99.90
61151;DHT22;47029;50.994;2.876;2022-09-09T02:43:45;16.10;99.90
61151;DHT22;47029;50.994;2.876;2022-09-09T02:49:05;16.10;99.90
61151;DHT22;47029;50.994;2.876;2022-09-09T02:52:00;16.10;99.90
61151;DHT22;47029;50.994;2.876;2022-09-09T02:54:33;16.00;99.90
61151;DHT22;47029;50.994;2.876;2022-09-09T02:57:12;15.90;99.90
61151;DHT22;47029;50.994;2.876;2022-09-09T02:59:40;15.80;99.90
61151;DHT22;47029;50.994;2.876;2022-09-09T03:02:06;15.90;99.90
61151;DHT22;47029;50.994;2.876;2022-09-09T03:04:33;15.90;99.90
61151;DHT22;47029;50.994;2.876;2022-09-09T03:06:59;16.00;99.90
61151;DHT22;47029;50.994;2.876;2022-09-09T03:09:25;15.90;99.90
61151;DHT22;47029;50.994;2.876;2022-09-09T03:11:53;15.90;99.90
61151;DHT22;47029;50.994;2.876;2022-09-09T03:14:20;15.90;99.90
61151;DHT22;47029;50.994;2.876;2022-09-09T03:16:53;15.90;99.90
61151;DHT22;47029;50.994;2.876;2022-09-09T03:19:20;15.90;99.90
61151;DHT22;47029;50.994;2.876;2022-09-09T03:21:47;15.90;99.90
61151;DHT22;47029;50.994;2.876;2022-09-09T03:24:13;16.00;99.90
61151;DHT22;47029;50.994;2.876;2022-09-09T03:26:40;15.90;99.90
61151;DHT22;47029;50.994;2.876;2022-09-09T03:29:07;16.00;99.90
61151;DHT22;47029;50.994;2.876;2022-09-09T03:31:36;16.00;99.90
61151;DHT22;47029;50.994;2.876;2022-09-09T03:34:02;15.90;99.90
61151;DHT22;47029;50.994;2.876;2022-09-09T03:36:28;15.80;99.90
61151;DHT22;47029;50.994;2.876;2022-09-09T03:38:55;15.80;99.90
61151;DHT22;47029;50.994;2.876;2022-09-09T03:41:22;15.80;99.90
61151;DHT22;47029;50.994;2.876;2022-09-09T03:43:53;15.90;99.90
61151;DHT22;47029;50.994;2.876;2022-09-09T03:46:20;15.80;99.90
61151;DHT22;47029;50.994;2.876;2022-09-09T03:48:47;15.70;99.90
61151;DHT22;47029;50.994;2.876;2022-09-09T03:51:13;15.70;99.90
61151;DHT22;47029;50.994;2.876;2022-09-09T03:53:39;15.70;99.90
61151;DHT22;47029;50.994;2.876;2022-09-09T03:56:06;15.60;99.90
61151;DHT22;47029;50.994;2.876;2022-09-09T03:58:33;15.60;99.90
61151;DHT22;47029;50.994;2.876;2022-09-09T04:01:07;15.60;99.90
61151;DHT22;47029;50.994;2.876;2022-09-09T04:03:40;15.70;99.90
61151;DHT22;47029;50.994;2.876;2022-09-09T04:06:07;15.60;99.90
61151;DHT22;47029;50.994;2.876;2022-09-09T04:08:33;15.70;99.90
61151;DHT22;47029;50.994;2.876;2022-09-09T04:11:01;15.60;99.90
61151;DHT22;47029;50.994;2.876;2022-09-09T04:13:30;15.50;99.90
61151;DHT22;47029;50.994;2.876;2022-09-09T04:15:58;15.70;99.90
61151;DHT22;47029;50.994;2.876;2022-09-09T04:18:25;15.60;99.90
61151;DHT22;47029;50.994;2.876;2022-09-09T04:20:52;15.50;99.90
61151;DHT22;47029;50.994;2.876;2022-09-09T04:23:19;15.40;99.90
61151;DHT22;47029;50.994;2.876;2022-09-09T04:25:51;15.40;99.90
61151;DHT22;47029;50.994;2.876;2022-09-09T04:28:18;15.40;99.90
61151;DHT22;47029;50.994;2.876;2022-09-09T04:30:45;15.30;99.90
61151;DHT22;47029;50.994;2.876;2022-09-09T04:33:12;15.30;99.90
61151;DHT22;47029;50.994;2.876;2022-09-09T04:35:38;15.30;99.90
61151;DHT22;47029;50.994;2.876;2022-09-09T04:38:05;15.40;99.90
61151;DHT22;47029;50.994;2.876;2022-09-09T04:40:35;15.40;99.90
61151;DHT22;47029;50.994;2.876;2022-09-09T04:43:02;15.40;99.90
61151;DHT22;47029;50.994;2.876;2022-09-09T04:45:31;15.30;99.90
61151;DHT22;47029;50.994;2.876;2022-09-09T04:47:57;15.30;99.90
61151;DHT22;47029;50.994;2.876;2022-09-09T04:50:23;15.30;99.90
61151;DHT22;47029;50.994;2.876;2022-09-09T04:52:50;15.20;99.90
61151;DHT22;47029;50.994;2.876;2022-09-09T04:55:16;15.20;99.90
61151;DHT22;47029;50.994;2.876;2022-09-09T04:57:42;15.20;99.90
61151;DHT22;47029;50.994;2.876;2022-09-09T05:00:08;15.20;99.90
61151;DHT22;47029;50.994;2.876;2022-09-09T05:02:39;15.20;99.90
61151;DHT22;47029;50.994;2.876;2022-09-09T05:05:05;15.20;99.90
61151;DHT22;47029;50.994;2.876;2022-09-09T05:07:32;15.20;99.90
61151;DHT22;47029;50.994;2.876;2022-09-09T05:09:58;15.30;99.90
61151;DHT22;47029;50.994;2.876;2022-09-09T05:12:24;15.40;99.90
61151;DHT22;47029;50.994;2.876;2022-09-09T05:14:51;15.30;99.90
61151;DHT22;47029;50.994;2.876;2022-09-09T05:17:17;15.20;99.90
61151;DHT22;47029;50.994;2.876;2022-09-09T05:19:43;15.20;99.90
61151;DHT22;47029;50.994;2.876;2022-09-09T05:22:10;15.20;99.90
61151;DHT22;47029;50.994;2.876;2022-09-09T05:24:37;15.10;99.90
61151;DHT22;47029;50.994;2.876;2022-09-09T05:27:04;15.20;99.90
61151;DHT22;47029;50.994;2.876;2022-09-09T05:29:30;15.10;99.90
61151;DHT22;47029;50.994;2.876;2022-09-09T05:31:59;15.20;99.90
61151;DHT22;47029;50.994;2.876;2022-09-09T05:34:25;15.10;99.90
61151;DHT22;47029;50.994;2.876;2022-09-09T05:36:51;15.10;99.90
61151;DHT22;47029;50.994;2.876;2022-09-09T05:39:17;15.20;99.90
61151;DHT22;47029;50.994;2.876;2022-09-09T05:41:43;15.20;99.90
61151;DHT22;47029;50.994;2.876;2022-09-09T05:44:09;15.20;99.90
61151;DHT22;47029;50.994;2.876;2022-09-09T05:46:35;15.30;99.90
61151;DHT22;47029;50.994;2.876;2022-09-09T05:49:02;15.30;99.90
61151;DHT22;47029;50.994;2.876;2022-09-09T05:51:29;15.30;99.90
61151;DHT22;47029;50.994;2.876;2022-09-09T05:53:57;15.20;99.90
61151;DHT22;47029;50.994;2.876;2022-09-09T05:56:28;15.20;99.90
61151;DHT22;47029;50.994;2.876;2022-09-09T05:58:55;15.30;99.90
61151;DHT22;47029;50.994;2.876;2022-09-09T06:01:30;15.20;99.90
61151;DHT22;47029;50.994;2.876;2022-09-09T06:03:56;15.20;99.90
61151;DHT22;47029;50.994;2.876;2022-09-09T06:06:24;15.30;99.90
61151;DHT22;47029;50.994;2.876;2022-09-09T06:08:53;15.20;99.90
61151;DHT22;47029;50.994;2.876;2022-09-09T06:11:24;15.20;99.90
61151;DHT22;47029;50.994;2.876;2022-09-09T06:13:52;15.20;99.90
61151;DHT22;47029;50.994;2.876;2022-09-09T06:16:21;15.20;99.90
61151;DHT22;47029;50.994;2.876;2022-09-09T06:18:51;15.20;99.90
61151;DHT22;47029;50.994;2.876;2022-09-09T06:21:20;15.20;99.90
61151;DHT22;47029;50.994;2.876;2022-09-09T06:23:47;15.20;99.90
61151;DHT22;47029;50.994;2.876;2022-09-09T06:26:20;15.10;99.90
61151;DHT22;47029;50.994;2.876;2022-09-09T06:28:47;15.10;99.90
61151;DHT22;47029;50.994;2.876;2022-09-09T06:31:16;15.10;99.90
61151;DHT22;47029;50.994;2.876;2022-09-09T06:33:43;15.20;99.90
61151;DHT22;47029;50.994;2.876;2022-09-09T06:36:13;15.20;99.90
61151;DHT22;47029;50.994;2.876;2022-09-09T06:38:40;15.20;99.90
61151;DHT22;47029;50.994;2.876;2022-09-09T06:41:08;15.20;99.90
61151;DHT22;47029;50.994;2.876;2022-09-09T06:43:34;15.20;99.90
61151;DHT22;47029;50.994;2.876;2022-09-09T06:46:10;15.30;99.90
61151;DHT22;47029;50.994;2.876;2022-09-09T06:48:36;15.30;99.90
61151;DHT22;47029;50.994;2.876;2022-09-09T06:53:34;15.40;99.90
61151;DHT22;47029;50.994;2.876;2022-09-09T06:58:36;15.40;99.90
61151;DHT22;47029;50.994;2.876;2022-09-09T07:01:06;15.50;99.90
61151;DHT22;47029;50.994;2.876;2022-09-09T07:03:32;15.50;99.90
61151;DHT22;47029;50.994;2.876;2022-09-09T07:05:59;15.30;99.90
61151;DHT22;47029;50.994;2.876;2022-09-09T07:08:25;15.40;99.90
61151;DHT22;47029;50.994;2.876;2022-09-09T07:10:52;15.40;99.90
61151;DHT22;47029;50.994;2.876;2022-09-09T07:13:26;15.40;99.90
61151;DHT22;47029;50.994;2.876;2022-09-09T07:15:52;15.50;99.90
61151;DHT22;47029;50.994;2.876;2022-09-09T07:18:19;15.40;99.90
61151;DHT22;47029;50.994;2.876;2022-09-09T07:20:55;15.50;99.90
61151;DHT22;47029;50.994;2.876;2022-09-09T07:23:22;15.60;99.90
61151;DHT22;47029;50.994;2.876;2022-09-09T07:25:48;15.50;99.90
61151;DHT22;47029;50.994;2.876;2022-09-09T07:28:15;15.70;99.90
61151;DHT22;47029;50.994;2.876;2022-09-09T07:30:42;15.80;99.90
61151;DHT22;47029;50.994;2.876;2022-09-09T07:33:09;16.10;99.90
61151;DHT22;47029;50.994;2.876;2022-09-09T07:35:38;16.00;99.90
61151;DHT22;47029;50.994;2.876;2022-09-09T07:38:03;16.00;99.90
61151;DHT22;47029;50.994;2.876;2022-09-09T07:40:33;16.10;99.90
61151;DHT22;47029;50.994;2.876;2022-09-09T07:43:00;16.00;99.90
61151;DHT22;47029;50.994;2.876;2022-09-09T07:45:26;16.10;99.90
61151;DHT22;47029;50.994;2.876;2022-09-09T07:47:54;16.10;99.90
61151;DHT22;47029;50.994;2.876;2022-09-09T07:50:22;16.20;99.90
61151;DHT22;47029;50.994;2.876;2022-09-09T07:52:50;16.30;99.90
61151;DHT22;47029;50.994;2.876;2022-09-09T07:55:16;16.60;99.90
61151;DHT22;47029;50.994;2.876;2022-09-09T07:57:42;16.70;99.90
61151;DHT22;47029;50.994;2.876;2022-09-09T08:00:08;16.70;99.90
61151;DHT22;47029;50.994;2.876;2022-09-09T08:02:35;16.70;99.90
61151;DHT22;47029;50.994;2.876;2022-09-09T08:05:01;16.60;99.90
61151;DHT22;47029;50.994;2.876;2022-09-09T08:07:27;16.60;99.90
61151;DHT22;47029;50.994;2.876;2022-09-09T08:09:54;16.60;99.90
61151;DHT22;47029;50.994;2.876;2022-09-09T08:12:21;16.90;99.90
61151;DHT22;47029;50.994;2.876;2022-09-09T08:14:48;17.10;99.90
61151;DHT22;47029;50.994;2.876;2022-09-09T08:17:14;17.20;99.90
61151;DHT22;47029;50.994;2.876;2022-09-09T08:19:40;17.40;99.90
61151;DHT22;47029;50.994;2.876;2022-09-09T08:22:06;17.40;99.90
61151;DHT22;47029;50.994;2.876;2022-09-09T08:24:33;17.40;99.90
61151;DHT22;47029;50.994;2.876;2022-09-09T08:26:59;17.40;99.90
61151;DHT22;47029;50.994;2.876;2022-09-09T08:29:25;17.40;99.90
61151;DHT22;47029;50.994;2.876;2022-09-09T08:31:52;17.40;99.90
61151;DHT22;47029;50.994;2.876;2022-09-09T08:34:20;17.40;99.90
61151;DHT22;47029;50.994;2.876;2022-09-09T08:36:48;17.40;99.90
61151;DHT22;47029;50.994;2.876;2022-09-09T08:39:16;17.40;99.90
61151;DHT22;47029;50.994;2.876;2022-09-09T08:50:29;17.30;99.90
61151;DHT22;47029;50.994;2.876;2022-09-09T08:53:21;17.50;99.90
61151;DHT22;47029;50.994;2.876;2022-09-09T08:55:48;17.40;99.90
61151;DHT22;47029;50.994;2.876;2022-09-09T08:58:34;17.50;99.90
61151;DHT22;47029;50.994;2.876;2022-09-09T09:01:34;17.60;99.90
61151;DHT22;47029;50.994;2.876;2022-09-09T09:04:30;17.50;99.90
61151;DHT22;47029;50.994;2.876;2022-09-09T09:12:17;17.60;99.90
61151;DHT22;47029;50.994;2.876;2022-09-09T09:14:46;17.80;99.90
61151;DHT22;47029;50.994;2.876;2022-09-09T09:17:21;17.70;99.90
61151;DHT22;47029;50.994;2.876;2022-09-09T09:19:49;17.80;99.90
61151;DHT22;47029;50.994;2.876;2022-09-09T09:27:32;17.80;99.90
61151;DHT22;47029;50.994;2.876;2022-09-09T09:32:58;17.90;99.90
61151;DHT22;47029;50.994;2.876;2022-09-09T09:35:25;17.90;99.90
61151;DHT22;47029;50.994;2.876;2022-09-09T09:37:51;17.90;99.90
61151;DHT22;47029;50.994;2.876;2022-09-09T09:40:20;17.90;99.90
61151;DHT22;47029;50.994;2.876;2022-09-09T09:42:57;18.00;99.90
61151;DHT22;47029;50.994;2.876;2022-09-09T09:45:34;18.10;99.90
61151;DHT22;47029;50.994;2.876;2022-09-09T09:48:06;18.10;99.90
61151;DHT22;47029;50.994;2.876;2022-09-09T09:50:33;18.20;99.90
61151;DHT22;47029;50.994;2.876;2022-09-09T09:53:03;18.30;99.90
61151;DHT22;47029;50.994;2.876;2022-09-09T09:55:31;18.40;99.90
61151;DHT22;47029;50.994;2.876;2022-09-09T09:58:04;18.60;99.90
61151;DHT22;47029;50.994;2.876;2022-09-09T10:00:30;18.60;99.90
61151;DHT22;47029;50.994;2.876;2022-09-09T10:02:56;18.50;99.90
61151;DHT22;47029;50.994;2.876;2022-09-09T10:05:28;18.40;99.90
61151;DHT22;47029;50.994;2.876;2022-09-09T10:08:02;18.40;99.90
61151;DHT22;47029;50.994;2.876;2022-09-09T10:24:31;18.70;99.90
61151;DHT22;47029;50.994;2.876;2022-09-09T10:32:48;18.60;99.90
61151;DHT22;47029;50.994;2.876;2022-09-09T10:56:35;19.30;99.90
61151;DHT22;47029;50.994;2.876;2022-09-09T10:59:12;19.40;99.90
61151;DHT22;47029;50.994;2.876;2022-09-09T11:01:49;19.50;99.90
61151;DHT22;47029;50.994;2.876;2022-09-09T11:04:42;19.50;99.90
61151;DHT22;47029;50.994;2.876;2022-09-09T11:07:15;19.60;99.90
61151;DHT22;47029;50.994;2.876;2022-09-09T11:09:52;19.60;99.90
61151;DHT22;47029;50.994;2.876;2022-09-09T11:12:19;19.80;99.90
61151;DHT22;47029;50.994;2.876;2022-09-09T11:15:07;19.20;99.90
61151;DHT22;47029;50.994;2.876;2022-09-09T11:17:48;19.10;99.90
61151;DHT22;47029;50.994;2.876;2022-09-09T11:20:15;19.00;99.90
61151;DHT22;47029;50.994;2.876;2022-09-09T11:22:51;18.90;99.90
61151;DHT22;47029;50.994;2.876;2022-09-09T11:25:38;19.30;99.90
61151;DHT22;47029;50.994;2.876;2022-09-09T11:31:27;19.60;99.90
61151;DHT22;47029;50.994;2.876;2022-09-09T11:41:38;19.60;99.90
61151;DHT22;47029;50.994;2.876;2022-09-09T11:44:12;19.80;99.90
61151;DHT22;47029;50.994;2.876;2022-09-09T11:46:43;20.00;99.90
61151;DHT22;47029;50.994;2.876;2022-09-09T11:49:43;20.10;99.90
61151;DHT22;47029;50.994;2.876;2022-09-09T11:52:37;20.20;99.90
61151;DHT22;47029;50.994;2.876;2022-09-09T11:55:24;20.40;99.90
61151;DHT22;47029;50.994;2.876;2022-09-09T12:00:40;20.30;99.90
61151;DHT22;47029;50.994;2.876;2022-09-09T12:06:17;20.00;99.90
61151;DHT22;47029;50.994;2.876;2022-09-09T12:08:46;19.60;99.90
61151;DHT22;47029;50.994;2.876;2022-09-09T12:11:24;19.50;99.90
61151;DHT22;47029;50.994;2.876;2022-09-09T12:13:56;19.60;99.90
61151;DHT22;47029;50.994;2.876;2022-09-09T12:16:33;19.80;99.90
61151;DHT22;47029;50.994;2.876;2022-09-09T12:19:15;20.20;99.90
61151;DHT22;47029;50.994;2.876;2022-09-09T12:22:02;20.30;99.90
61151;DHT22;47029;50.994;2.876;2022-09-09T12:24:47;20.60;99.90
61151;DHT22;47029;50.994;2.876;2022-09-09T12:30:09;20.30;99.90
61151;DHT22;47029;50.994;2.876;2022-09-09T12:32:36;20.50;99.90
61151;DHT22;47029;50.994;2.876;2022-09-09T12:35:11;20.40;99.90
61151;DHT22;47029;50.994;2.876;2022-09-09T12:38:00;20.00;99.90
61151;DHT22;47029;50.994;2.876;2022-09-09T12:40:32;19.90;99.90
61151;DHT22;47029;50.994;2.876;2022-09-09T12:43:01;19.70;99.90
61151;DHT22;47029;50.994;2.876;2022-09-09T12:45:30;19.70;99.90
61151;DHT22;47029;50.994;2.876;2022-09-09T12:48:03;20.00;99.90
61151;DHT22;47029;50.994;2.876;2022-09-09T12:50:35;20.00;99.90
61151;DHT22;47029;50.994;2.876;2022-09-09T12:53:12;19.80;99.90
61151;DHT22;47029;50.994;2.876;2022-09-09T12:55:53;19.80;99.90
61151;DHT22;47029;50.994;2.876;2022-09-09T12:58:20;19.80;99.90
61151;DHT22;47029;50.994;2.876;2022-09-09T13:00:51;19.60;99.90
61151;DHT22;47029;50.994;2.876;2022-09-09T13:03:26;19.60;99.90
61151;DHT22;47029;50.994;2.876;2022-09-09T13:05:53;19.60;99.90
61151;DHT22;47029;50.994;2.876;2022-09-09T13:08:24;19.70;99.90
61151;DHT22;47029;50.994;2.876;2022-09-09T13:10:57;19.60;99.90
61151;DHT22;47029;50.994;2.876;2022-09-09T13:13:34;19.70;99.90
61151;DHT22;47029;50.994;2.876;2022-09-09T13:16:02;19.70;99.90
61151;DHT22;47029;50.994;2.876;2022-09-09T13:18:33;19.90;99.90
61151;DHT22;47029;50.994;2.876;2022-09-09T13:20:59;20.00;99.90
61151;DHT22;47029;50.994;2.876;2022-09-09T13:23:34;20.00;99.90
61151;DHT22;47029;50.994;2.876;2022-09-09T13:26:21;20.20;99.90
61151;DHT22;47029;50.994;2.876;2022-09-09T13:28:48;20.30;99.90
61151;DHT22;47029;50.994;2.876;2022-09-09T13:31:29;20.40;99.90
61151;DHT22;47029;50.994;2.876;2022-09-09T13:33:55;20.40;99.90
61151;DHT22;47029;50.994;2.876;2022-09-09T13:36:32;20.50;99.90
61151;DHT22;47029;50.994;2.876;2022-09-09T13:39:02;20.60;99.90
61151;DHT22;47029;50.994;2.876;2022-09-09T13:41:36;20.60;99.90
61151;DHT22;47029;50.994;2.876;2022-09-09T13:44:20;20.70;99.90
61151;DHT22;47029;50.994;2.876;2022-09-09T13:47:03;20.90;99.90
61151;DHT22;47029;50.994;2.876;2022-09-09T13:49:30;20.90;99.90
61151;DHT22;47029;50.994;2.876;2022-09-09T13:52:13;21.00;99.90
61151;DHT22;47029;50.994;2.876;2022-09-09T13:54:40;20.90;99.90
61151;DHT22;47029;50.994;2.876;2022-09-09T13:57:17;20.50;99.90
61151;DHT22;47029;50.994;2.876;2022-09-09T13:59:44;20.40;99.90
61151;DHT22;47029;50.994;2.876;2022-09-09T14:02:10;20.40;99.90
61151;DHT22;47029;50.994;2.876;2022-09-09T14:04:36;20.30;99.90
61151;DHT22;47029;50.994;2.876;2022-09-09T14:07:02;20.60;99.90
61151;DHT22;47029;50.994;2.876;2022-09-09T14:09:28;20.60;99.90
61151;DHT22;47029;50.994;2.876;2022-09-09T14:11:54;20.70;99.90
61151;DHT22;47029;50.994;2.876;2022-09-09T14:14:23;20.80;99.90
61151;DHT22;47029;50.994;2.876;2022-09-09T14:16:48;20.60;99.90
61151;DHT22;47029;50.994;2.876;2022-09-09T14:19:14;20.60;99.90
61151;DHT22;47029;50.994;2.876;2022-09-09T14:21:40;20.60;99.90
61151;DHT22;47029;50.994;2.876;2022-09-09T14:24:06;20.90;99.90
61151;DHT22;47029;50.994;2.876;2022-09-09T14:26:32;20.80;99.90
61151;DHT22;47029;50.994;2.876;2022-09-09T14:28:58;20.40;99.90
61151;DHT22;47029;50.994;2.876;2022-09-09T14:31:24;20.30;99.90
61151;DHT22;47029;50.994;2.876;2022-09-09T14:33:50;20.40;99.90
61151;DHT22;47029;50.994;2.876;2022-09-09T14:36:16;20.40;99.90
61151;DHT22;47029;50.994;2.876;2022-09-09T14:38:42;20.60;99.90
61151;DHT22;47029;50.994;2.876;2022-09-09T14:41:13;20.50;99.90
61151;DHT22;47029;50.994;2.876;2022-09-09T14:43:42;20.50;99.90
61151;DHT22;47029;50.994;2.876;2022-09-09T14:46:11;20.30;99.90
61151;DHT22;47029;50.994;2.876;2022-09-09T14:48:37;20.10;99.90
61151;DHT22;47029;50.994;2.876;2022-09-09T14:51:14;20.00;99.90
61151;DHT22;47029;50.994;2.876;2022-09-09T14:53:41;20.10;99.90
61151;DHT22;47029;50.994;2.876;2022-09-09T14:56:16;20.10;99.90
61151;DHT22;47029;50.994;2.876;2022-09-09T14:58:42;20.10;99.90
61151;DHT22;47029;50.994;2.876;2022-09-09T15:01:10;20.10;99.90
61151;DHT22;47029;50.994;2.876;2022-09-09T15:03:38;20.10;99.90
61151;DHT22;47029;50.994;2.876;2022-09-09T15:06:09;20.10;99.90
61151;DHT22;47029;50.994;2.876;2022-09-09T15:08:41;20.10;99.90
61151;DHT22;47029;50.994;2.876;2022-09-09T15:11:08;20.20;99.90
61151;DHT22;47029;50.994;2.876;2022-09-09T15:13:35;20.10;99.90
61151;DHT22;47029;50.994;2.876;2022-09-09T15:18:32;20.00;99.90
61151;DHT22;47029;50.994;2.876;2022-09-09T15:20:59;19.90;99.90
61151;DHT22;47029;50.994;2.876;2022-09-09T15:23:26;19.90;99.90
61151;DHT22;47029;50.994;2.876;2022-09-09T15:25:53;19.90;99.90
61151;DHT22;47029;50.994;2.876;2022-09-09T15:28:20;19.80;99.90
61151;DHT22;47029;50.994;2.876;2022-09-09T15:30:50;19.90;99.90
61151;DHT22;47029;50.994;2.876;2022-09-09T15:33:18;19.90;99.90
61151;DHT22;47029;50.994;2.876;2022-09-09T15:35:45;20.00;99.90
61151;DHT22;47029;50.994;2.876;2022-09-09T15:38:11;20.20;99.90
61151;DHT22;47029;50.994;2.876;2022-09-09T15:40:39;20.10;99.90
61151;DHT22;47029;50.994;2.876;2022-09-09T15:43:06;19.80;99.90
61151;DHT22;47029;50.994;2.876;2022-09-09T15:45:32;19.70;99.90
61151;DHT22;47029;50.994;2.876;2022-09-09T15:48:03;19.70;99.90
61151;DHT22;47029;50.994;2.876;2022-09-09T15:50:29;19.60;99.90
61151;DHT22;47029;50.994;2.876;2022-09-09T15:53:01;19.80;99.90
61151;DHT22;47029;50.994;2.876;2022-09-09T15:55:27;20.00;99.90
61151;DHT22;47029;50.994;2.876;2022-09-09T15:57:54;20.10;99.90
61151;DHT22;47029;50.994;2.876;2022-09-09T16:00:20;20.10;99.90
61151;DHT22;47029;50.994;2.876;2022-09-09T16:02:47;20.20;99.90
61151;DHT22;47029;50.994;2.876;2022-09-09T16:05:13;20.00;99.90
61151;DHT22;47029;50.994;2.876;2022-09-09T16:07:39;20.10;99.90
61151;DHT22;47029;50.994;2.876;2022-09-09T16:10:08;19.90;99.90
61151;DHT22;47029;50.994;2.876;2022-09-09T16:12:34;20.00;99.90
61151;DHT22;47029;50.994;2.876;2022-09-09T16:15:00;20.00;99.90
61151;DHT22;47029;50.994;2.876;2022-09-09T16:17:26;20.10;99.90
61151;DHT22;47029;50.994;2.876;2022-09-09T16:19:53;20.10;99.90
61151;DHT22;47029;50.994;2.876;2022-09-09T16:22:19;20.00;99.90
61151;DHT22;47029;50.994;2.876;2022-09-09T16:24:45;20.00;99.90
61151;DHT22;47029;50.994;2.876;2022-09-09T16:27:11;19.80;99.90
61151;DHT22;47029;50.994;2.876;2022-09-09T16:29:37;19.70;99.90
61151;DHT22;47029;50.994;2.876;2022-09-09T16:32:03;19.60;99.90
61151;DHT22;47029;50.994;2.876;2022-09-09T16:34:29;19.50;99.90
61151;DHT22;47029;50.994;2.876;2022-09-09T16:36:55;19.60;99.90
61151;DHT22;47029;50.994;2.876;2022-09-09T16:39:21;19.60;99.90
61151;DHT22;47029;50.994;2.876;2022-09-09T16:41:48;19.60;99.90
61151;DHT22;47029;50.994;2.876;2022-09-09T16:44:15;19.60;99.90
61151;DHT22;47029;50.994;2.876;2022-09-09T16:46:44;19.70;99.90
61151;DHT22;47029;50.994;2.876;2022-09-09T16:49:12;19.70;99.90
61151;DHT22;47029;50.994;2.876;2022-09-09T16:51:42;19.70;99.90
61151;DHT22;47029;50.994;2.876;2022-09-09T16:54:10;19.70;99.90
61151;DHT22;47029;50.994;2.876;2022-09-09T16:56:38;19.70;99.90
61151;DHT22;47029;50.994;2.876;2022-09-09T16:59:12;19.60;99.90
61151;DHT22;47029;50.994;2.876;2022-09-09T17:01:39;19.70;99.90
61151;DHT22;47029;50.994;2.876;2022-09-09T17:04:11;19.80;99.90
61151;DHT22;47029;50.994;2.876;2022-09-09T17:06:38;19.80;99.90
61151;DHT22;47029;50.994;2.876;2022-09-09T17:09:09;19.80;99.90
61151;DHT22;47029;50.994;2.876;2022-09-09T17:11:37;19.90;99.90
61151;DHT22;47029;50.994;2.876;2022-09-09T17:14:03;19.90;99.90
61151;DHT22;47029;50.994;2.876;2022-09-09T17:16:31;19.70;99.90
61151;DHT22;47029;50.994;2.876;2022-09-09T17:18:59;19.60;99.90
61151;DHT22;47029;50.994;2.876;2022-09-09T17:21:27;19.70;99.90
61151;DHT22;47029;50.994;2.876;2022-09-09T17:23:54;19.70;99.90
61151;DHT22;47029;50.994;2.876;2022-09-09T17:26:23;19.50;99.90
61151;DHT22;47029;50.994;2.876;2022-09-09T17:28:49;19.40;99.90
61151;DHT22;47029;50.994;2.876;2022-09-09T17:31:16;19.20;99.90
61151;DHT22;47029;50.994;2.876;2022-09-09T17:33:45;19.10;99.90
61151;DHT22;47029;50.994;2.876;2022-09-09T17:38:41;19.00;99.90
61151;DHT22;47029;50.994;2.876;2022-09-09T17:41:23;19.00;99.90
61151;DHT22;47029;50.994;2.876;2022-09-09T17:43:50;19.00;99.90
61151;DHT22;47029;50.994;2.876;2022-09-09T17:46:19;19.00;99.90
61151;DHT22;47029;50.994;2.876;2022-09-09T17:48:47;18.90;99.90
61151;DHT22;47029;50.994;2.876;2022-09-09T17:51:18;18.90;99.90
61151;DHT22;47029;50.994;2.876;2022-09-09T17:53:48;18.90;99.90